sensor_id;sensor_type;location;lat;lon;timestamp;temperature;humidity
24614;DHT22;12760;46.296;25.290;2023-03-21T00:00:40;11.30;99.90
24614;DHT22;12760;46.296;25.290;2023-03-21T00:03:06;11.10;99.90
24614;DHT22;12760;46.296;25.290;2023-03-21T00:05:33;11.20;99.90
24614;DHT22;12760;46.296;25.290;2023-03-21T00:07:59;11.20;99.90
24614;DHT22;12760;46.296;25.290;2023-03-21T00:10:25;11.00;99.90
24614;DHT22;12760;46.296;25.290;2023-03-21T00:12:50;10.80;99.90
24614;DHT22;12760;46.296;25.290;2023-03-21T00:15:20;11.00;99.90
24614;DHT22;12760;46.296;25.290;2023-03-21T00:17:45;10.70;99.90
24614;DHT22;12760;46.296;25.290;2023-03-21T00:20:15;10.50;99.90
24614;DHT22;12760;46.296;25.290;2023-03-21T00:22:41;10.70;99.90
24614;DHT22;12760;46.296;25.290;2023-03-21T00:25:08;10.90;99.90
24614;DHT22;12760;46.296;25.290;2023-03-21T00:27:35;10.80;99.90
24614;DHT22;12760;46.296;25.290;2023-03-21T00:30:02;11.00;99.90
24614;DHT22;12760;46.296;25.290;2023-03-21T00:32:28;11.10;99.90
24614;DHT22;12760;46.296;25.290;2023-03-21T00:34:54;11.10;99.90
24614;DHT22;12760;46.296;25.290;2023-03-21T00:37:20;11.20;99.90
24614;DHT22;12760;46.296;25.290;2023-03-21T00:39:47;11.20;99.90
24614;DHT22;12760;46.296;25.290;2023-03-21T00:42:16;11.30;99.90
24614;DHT22;12760;46.296;25.290;2023-03-21T00:44:42;11.20;99.90
24614;DHT22;12760;46.296;25.290;2023-03-21T00:47:11;11.20;99.90
24614;DHT22;12760;46.296;25.290;2023-03-21T00:49:37;11.30;99.90
24614;DHT22;12760;46.296;25.290;2023-03-21T00:52:08;11.20;99.90
24614;DHT22;12760;46.296;25.290;2023-03-21T00:54:35;11.20;99.90
24614;DHT22;12760;46.296;25.290;2023-03-21T00:57:02;11.30;99.90
24614;DHT22;12760;46.296;25.290;2023-03-21T00:59:28;11.30;99.90
24614;DHT22;12760;46.296;25.290;2023-03-21T01:01:54;11.20;99.90
24614;DHT22;12760;46.296;25.290;2023-03-21T01:04:21;11.30;99.90
24614;DHT22;12760;46.296;25.290;2023-03-21T01:06:51;11.20;99.90
24614;DHT22;12760;46.296;25.290;2023-03-21T01:09:21;11.20;99.90
24614;DHT22;12760;46.296;25.290;2023-03-21T01:11:47;11.30;99.90
24614;DHT22;12760;46.296;25.290;2023-03-21T01:14:14;11.20;99.90
24614;DHT22;12760;46.296;25.290;2023-03-21T01:16:41;11.20;99.90
24614;DHT22;12760;46.296;25.290;2023-03-21T01:19:07;11.20;99.90
24614;DHT22;12760;46.296;25.290;2023-03-21T01:21:34;11.30;99.90
24614;DHT22;12760;46.296;25.290;2023-03-21T01:24:01;11.20;99.90
24614;DHT22;12760;46.296;25.290;2023-03-21T01:26:27;11.20;99.90
24614;DHT22;12760;46.296;25.290;2023-03-21T01:28:52;11.20;99.90
24614;DHT22;12760;46.296;25.290;2023-03-21T01:31:18;11.30;99.90
24614;DHT22;12760;46.296;25.290;2023-03-21T01:33:44;11.30;99.90
24614;DHT22;12760;46.296;25.290;2023-03-21T01:36:16;11.40;99.90
24614;DHT22;12760;46.296;25.290;2023-03-21T01:38:42;11.40;99.90
24614;DHT22;12760;46.296;25.290;2023-03-21T01:41:24;11.40;99.90
24614;DHT22;12760;46.296;25.290;2023-03-21T01:43:50;11.40;99.90
24614;DHT22;12760;46.296;25.290;2023-03-21T01:52:23;11.40;99.90
24614;DHT22;12760;46.296;25.290;2023-03-21T01:54:52;11.30;99.90
24614;DHT22;12760;46.296;25.290;2023-03-21T01:57:26;11.20;99.90
24614;DHT22;12760;46.296;25.290;2023-03-21T01:59:58;11.10;99.90
24614;DHT22;12760;46.296;25.290;2023-03-21T02:02:28;11.00;99.90
24614;DHT22;12760;46.296;25.290;2023-03-21T02:04:56;11.10;99.90
24614;DHT22;12760;46.296;25.290;2023-03-21T02:07:31;11.10;99.90
24614;DHT22;12760;46.296;25.290;2023-03-21T02:10:02;11.10;99.90
24614;DHT22;12760;46.296;25.290;2023-03-21T02:12:29;11.20;99.90
24614;DHT22;12760;46.296;25.290;2023-03-21T02:14:56;11.10;99.90
24614;DHT22;12760;46.296;25.290;2023-03-21T02:39:06;10.90;99.90
24614;DHT22;12760;46.296;25.290;2023-03-21T02:41:51;10.80;99.90
24614;DHT22;12760;46.296;25.290;2023-03-21T02:44:40;10.70;99.90
24614;DHT22;12760;46.296;25.290;2023-03-21T02:47:12;10.70;99.90
24614;DHT22;12760;46.296;25.290;2023-03-21T02:50:26;10.80;99.90
24614;DHT22;12760;46.296;25.290;2023-03-21T02:52:29;10.80;99.90
24614;DHT22;12760;46.296;25.290;2023-03-21T02:54:57;10.80;99.90
24614;DHT22;12760;46.296;25.290;2023-03-21T02:57:25;10.80;99.90
24614;DHT22;12760;46.296;25.290;2023-03-21T02:59:52;10.70;99.90
24614;DHT22;12760;46.296;25.290;2023-03-21T03:02:22;10.70;99.90
24614;DHT22;12760;46.296;25.290;2023-03-21T03:04:49;10.80;99.90
24614;DHT22;12760;46.296;25.290;2023-03-21T03:18:40;10.70;99.90
24614;DHT22;12760;46.296;25.290;2023-03-21T03:26:37;10.70;99.90
24614;DHT22;12760;46.296;25.290;2023-03-21T03:29:10;10.80;99.90
24614;DHT22;12760;46.296;25.290;2023-03-21T03:31:45;10.70;99.90
24614;DHT22;12760;46.296;25.290;2023-03-21T03:34:18;10.70;99.90
24614;DHT22;12760;46.296;25.290;2023-03-21T03:36:49;10.70;99.90
24614;DHT22;12760;46.296;25.290;2023-03-21T03:39:28;10.70;99.90
24614;DHT22;12760;46.296;25.290;2023-03-21T03:41:57;10.70;99.90
24614;DHT22;12760;46.296;25.290;2023-03-21T03:44:24;10.70;99.90
24614;DHT22;12760;46.296;25.290;2023-03-21T03:49:24;10.70;99.90
24614;DHT22;12760;46.296;25.290;2023-03-21T03:52:03;10.70;99.90
24614;DHT22;12760;46.296;25.290;2023-03-21T03:54:39;10.60;99.90
24614;DHT22;12760;46.296;25.290;2023-03-21T03:57:07;10.70;99.90
24614;DHT22;12760;46.296;25.290;2023-03-21T03:59:35;10.60;99.90
24614;DHT22;12760;46.296;25.290;2023-03-21T04:02:01;10.70;99.90
24614;DHT22;12760;46.296;25.290;2023-03-21T04:04:27;10.60;99.90
24614;DHT22;12760;46.296;25.290;2023-03-21T04:06:57;10.60;99.90
24614;DHT22;12760;46.296;25.290;2023-03-21T04:09:23;10.60;99.90
24614;DHT22;12760;46.296;25.290;2023-03-21T04:11:49;10.50;99.90
24614;DHT22;12760;46.296;25.290;2023-03-21T04:14:15;10.50;99.90
24614;DHT22;12760;46.296;25.290;2023-03-21T04:16:41;10.50;99.90
24614;DHT22;12760;46.296;25.290;2023-03-21T04:19:07;10.50;99.90
24614;DHT22;12760;46.296;25.290;2023-03-21T04:21:33;10.40;99.90
24614;DHT22;12760;46.296;25.290;2023-03-21T04:23:58;10.40;99.90
24614;DHT22;12760;46.296;25.290;2023-03-21T04:26:24;10.40;99.90
24614;DHT22;12760;46.296;25.290;2023-03-21T04:28:55;10.50;99.90
24614;DHT22;12760;46.296;25.290;2023-03-21T04:31:21;10.50;99.90
24614;DHT22;12760;46.296;25.290;2023-03-21T04:33:56;10.50;99.90
24614;DHT22;12760;46.296;25.290;2023-03-21T04:36:22;10.50;99.90
24614;DHT22;12760;46.296;25.290;2023-03-21T04:38:58;10.50;99.90
24614;DHT22;12760;46.296;25.290;2023-03-21T04:41:29;10.40;99.90
24614;DHT22;12760;46.296;25.290;2023-03-21T04:43:55;10.50;99.90
24614;DHT22;12760;46.296;25.290;2023-03-21T04:46:21;10.50;99.90
24614;DHT22;12760;46.296;25.290;2023-03-21T04:48:47;10.50;99.90
24614;DHT22;12760;46.296;25.290;2023-03-21T04:51:14;10.50;99.90
24614;DHT22;12760;46.296;25.290;2023-03-21T04:53:40;10.50;99.90
24614;DHT22;12760;46.296;25.290;2023-03-21T04:56:12;10.60;99.90
24614;DHT22;12760;46.296;25.290;2023-03-21T04:58:38;10.60;99.90
24614;DHT22;12760;46.296;25.290;2023-03-21T05:01:05;10.60;99.90
24614;DHT22;12760;46.296;25.290;2023-03-21T05:03:31;10.70;99.90
24614;DHT22;12760;46.296;25.290;2023-03-21T05:06:02;10.60;99.90
24614;DHT22;12760;46.296;25.290;2023-03-21T05:08:28;10.60;99.90
24614;DHT22;12760;46.296;25.290;2023-03-21T05:10:54;10.60;99.90
24614;DHT22;12760;46.296;25.290;2023-03-21T05:13:19;10.60;99.90
24614;DHT22;12760;46.296;25.290;2023-03-21T05:15:45;10.70;99.90
24614;DHT22;12760;46.296;25.290;2023-03-21T05:18:11;10.60;99.90
24614;DHT22;12760;46.296;25.290;2023-03-21T05:20:38;10.50;99.90
24614;DHT22;12760;46.296;25.290;2023-03-21T05:23:08;10.50;99.90
24614;DHT22;12760;46.296;25.290;2023-03-21T05:25:38;10.50;99.90
24614;DHT22;12760;46.296;25.290;2023-03-21T05:28:05;10.50;99.90
24614;DHT22;12760;46.296;25.290;2023-03-21T05:30:32;10.60;99.90
24614;DHT22;12760;46.296;25.290;2023-03-21T05:32:58;10.60;99.90
24614;DHT22;12760;46.296;25.290;2023-03-21T05:35:24;10.50;99.90
24614;DHT22;12760;46.296;25.290;2023-03-21T05:37:50;10.50;99.90
24614;DHT22;12760;46.296;25.290;2023-03-21T05:40:16;10.60;99.90
24614;DHT22;12760;46.296;25.290;2023-03-21T05:42:42;10.60;99.90
24614;DHT22;12760;46.296;25.290;2023-03-21T05:45:08;10.60;99.90
24614;DHT22;12760;46.296;25.290;2023-03-21T05:47:33;10.60;99.90
24614;DHT22;12760;46.296;25.290;2023-03-21T05:49:59;10.60;99.90
24614;DHT22;12760;46.296;25.290;2023-03-21T05:52:25;10.60;99.90
24614;DHT22;12760;46.296;25.290;2023-03-21T05:54:51;10.60;99.90
24614;DHT22;12760;46.296;25.290;2023-03-21T05:57:16;10.60;99.90
24614;DHT22;12760;46.296;25.290;2023-03-21T05:59:44;10.60;99.90
24614;DHT22;12760;46.296;25.290;2023-03-21T06:02:10;10.60;99.90
24614;DHT22;12760;46.296;25.290;2023-03-21T06:04:36;10.70;99.90
24614;DHT22;12760;46.296;25.290;2023-03-21T06:07:02;10.60;99.90
24614;DHT22;12760;46.296;25.290;2023-03-21T06:09:27;10.60;99.90
24614;DHT22;12760;46.296;25.290;2023-03-21T06:11:55;10.70;99.90
24614;DHT22;12760;46.296;25.290;2023-03-21T06:14:22;10.70;99.90
24614;DHT22;12760;46.296;25.290;2023-03-21T06:16:48;10.80;99.90
24614;DHT22;12760;46.296;25.290;2023-03-21T06:19:14;10.80;99.90
24614;DHT22;12760;46.296;25.290;2023-03-21T06:21:40;10.80;99.90
24614;DHT22;12760;46.296;25.290;2023-03-21T06:24:05;10.80;99.90
24614;DHT22;12760;46.296;25.290;2023-03-21T06:26:31;10.80;99.90
24614;DHT22;12760;46.296;25.290;2023-03-21T06:28:57;10.70;99.90
24614;DHT22;12760;46.296;25.290;2023-03-21T06:31:23;10.80;99.90
24614;DHT22;12760;46.296;25.290;2023-03-21T06:33:49;10.90;99.90
24614;DHT22;12760;46.296;25.290;2023-03-21T06:36:17;10.90;99.90
24614;DHT22;12760;46.296;25.290;2023-03-21T06:38:43;10.90;99.90
24614;DHT22;12760;46.296;25.290;2023-03-21T06:41:09;11.00;99.90
24614;DHT22;12760;46.296;25.290;2023-03-21T06:43:35;11.10;99.90
24614;DHT22;12760;46.296;25.290;2023-03-21T06:46:01;11.10;99.90
24614;DHT22;12760;46.296;25.290;2023-03-21T06:48:27;11.20;99.90
24614;DHT22;12760;46.296;25.290;2023-03-21T06:50:54;11.10;99.90
24614;DHT22;12760;46.296;25.290;2023-03-21T06:53:21;11.00;99.90
24614;DHT22;12760;46.296;25.290;2023-03-21T06:55:50;11.00;99.90
24614;DHT22;12760;46.296;25.290;2023-03-21T06:58:16;10.90;99.90
24614;DHT22;12760;46.296;25.290;2023-03-21T07:00:42;10.90;99.90
24614;DHT22;12760;46.296;25.290;2023-03-21T07:03:10;10.90;99.90
24614;DHT22;12760;46.296;25.290;2023-03-21T07:05:36;10.80;99.90
24614;DHT22;12760;46.296;25.290;2023-03-21T07:08:02;10.70;99.90
24614;DHT22;12760;46.296;25.290;2023-03-21T07:10:28;10.80;99.90
24614;DHT22;12760;46.296;25.290;2023-03-21T07:12:54;10.90;99.90
24614;DHT22;12760;46.296;25.290;2023-03-21T07:15:20;11.00;99.90
24614;DHT22;12760;46.296;25.290;2023-03-21T07:17:46;11.10;99.90
24614;DHT22;12760;46.296;25.290;2023-03-21T07:20:12;11.00;99.90
24614;DHT22;12760;46.296;25.290;2023-03-21T07:22:38;10.90;99.90
24614;DHT22;12760;46.296;25.290;2023-03-21T07:25:04;10.90;99.90
24614;DHT22;12760;46.296;25.290;2023-03-21T07:27:32;10.90;99.90
24614;DHT22;12760;46.296;25.290;2023-03-21T07:29:57;11.00;99.90
24614;DHT22;12760;46.296;25.290;2023-03-21T07:32:23;11.10;99.90
24614;DHT22;12760;46.296;25.290;2023-03-21T07:34:54;11.20;99.90
24614;DHT22;12760;46.296;25.290;2023-03-21T07:37:20;11.30;99.90
24614;DHT22;12760;46.296;25.290;2023-03-21T07:39:46;11.30;99.90
24614;DHT22;12760;46.296;25.290;2023-03-21T07:42:11;11.30;99.90
24614;DHT22;12760;46.296;25.290;2023-03-21T07:44:37;11.40;99.90
24614;DHT22;12760;46.296;25.290;2023-03-21T07:47:04;11.40;99.90
24614;DHT22;12760;46.296;25.290;2023-03-21T07:49:30;11.40;99.90
24614;DHT22;12760;46.296;25.290;2023-03-21T07:51:55;11.30;99.90
24614;DHT22;12760;46.296;25.290;2023-03-21T07:54:21;11.40;99.90
24614;DHT22;12760;46.296;25.290;2023-03-21T07:56:48;11.50;99.90
24614;DHT22;12760;46.296;25.290;2023-03-21T07:59:13;11.60;99.90
24614;DHT22;12760;46.296;25.290;2023-03-21T08:01:39;11.70;99.90
24614;DHT22;12760;46.296;25.290;2023-03-21T08:04:05;11.70;99.90
24614;DHT22;12760;46.296;25.290;2023-03-21T08:06:31;11.70;99.90
24614;DHT22;12760;46.296;25.290;2023-03-21T08:08:57;11.70;99.90
24614;DHT22;12760;46.296;25.290;2023-03-21T08:11:23;11.80;99.90
24614;DHT22;12760;46.296;25.290;2023-03-21T08:13:49;11.80;99.90
24614;DHT22;12760;46.296;25.290;2023-03-21T08:16:16;11.90;99.90
24614;DHT22;12760;46.296;25.290;2023-03-21T08:18:42;11.90;99.90
24614;DHT22;12760;46.296;25.290;2023-03-21T08:21:08;11.90;99.90
24614;DHT22;12760;46.296;25.290;2023-03-21T08:23:33;11.90;99.90
24614;DHT22;12760;46.296;25.290;2023-03-21T08:26:00;11.90;99.90
24614;DHT22;12760;46.296;25.290;2023-03-21T08:28:26;12.00;99.90
24614;DHT22;12760;46.296;25.290;2023-03-21T08:30:52;11.90;99.90
24614;DHT22;12760;46.296;25.290;2023-03-21T08:33:18;11.90;99.90
24614;DHT22;12760;46.296;25.290;2023-03-21T08:35:44;12.00;99.90
24614;DHT22;12760;46.296;25.290;2023-03-21T08:38:10;12.00;99.90
24614;DHT22;12760;46.296;25.290;2023-03-21T08:40:36;12.10;99.90
24614;DHT22;12760;46.296;25.290;2023-03-21T08:43:03;12.20;99.90
24614;DHT22;12760;46.296;25.290;2023-03-21T08:45:29;12.20;99.90
24614;DHT22;12760;46.296;25.290;2023-03-21T08:47:55;12.30;99.90
24614;DHT22;12760;46.296;25.290;2023-03-21T08:50:23;12.30;99.90
24614;DHT22;12760;46.296;25.290;2023-03-21T08:52:49;12.20;99.90
24614;DHT22;12760;46.296;25.290;2023-03-21T08:55:16;12.20;99.90
24614;DHT22;12760;46.296;25.290;2023-03-21T08:57:42;12.30;99.90
24614;DHT22;12760;46.296;25.290;2023-03-21T09:00:10;12.30;99.90
24614;DHT22;12760;46.296;25.290;2023-03-21T09:02:39;12.30;99.90
24614;DHT22;12760;46.296;25.290;2023-03-21T09:05:05;12.30;99.90
24614;DHT22;12760;46.296;25.290;2023-03-21T09:07:33;12.30;99.90
24614;DHT22;12760;46.296;25.290;2023-03-21T09:10:01;12.40;99.90
24614;DHT22;12760;46.296;25.290;2023-03-21T09:12:27;12.30;99.90
24614;DHT22;12760;46.296;25.290;2023-03-21T09:14:53;12.40;99.90
24614;DHT22;12760;46.296;25.290;2023-03-21T09:17:19;12.30;99.90
24614;DHT22;12760;46.296;25.290;2023-03-21T09:19:45;12.40;99.90
24614;DHT22;12760;46.296;25.290;2023-03-21T09:22:12;12.40;99.90
24614;DHT22;12760;46.296;25.290;2023-03-21T09:24:39;12.40;99.90
24614;DHT22;12760;46.296;25.290;2023-03-21T09:27:06;12.50;99.90
24614;DHT22;12760;46.296;25.290;2023-03-21T09:29:32;12.60;99.90
24614;DHT22;12760;46.296;25.290;2023-03-21T09:31:58;12.70;99.90
24614;DHT22;12760;46.296;25.290;2023-03-21T09:34:26;12.70;99.90
24614;DHT22;12760;46.296;25.290;2023-03-21T09:36:52;12.60;99.90
24614;DHT22;12760;46.296;25.290;2023-03-21T09:39:22;12.60;99.90
24614;DHT22;12760;46.296;25.290;2023-03-21T09:47:11;12.70;99.90
24614;DHT22;12760;46.296;25.290;2023-03-21T09:49:44;12.70;99.90
24614;DHT22;12760;46.296;25.290;2023-03-21T09:52:36;12.80;99.90
24614;DHT22;12760;46.296;25.290;2023-03-21T09:55:05;12.80;99.90
24614;DHT22;12760;46.296;25.290;2023-03-21T09:58:31;12.90;99.90
24614;DHT22;12760;46.296;25.290;2023-03-21T10:00:36;12.90;99.90
24614;DHT22;12760;46.296;25.290;2023-03-21T10:03:08;12.90;99.90
24614;DHT22;12760;46.296;25.290;2023-03-21T10:05:40;12.90;99.90
24614;DHT22;12760;46.296;25.290;2023-03-21T10:08:20;13.00;99.90
24614;DHT22;12760;46.296;25.290;2023-03-21T10:10:50;13.00;99.90
24614;DHT22;12760;46.296;25.290;2023-03-21T10:13:24;13.00;99.90
24614;DHT22;12760;46.296;25.290;2023-03-21T10:15:56;13.00;99.90
24614;DHT22;12760;46.296;25.290;2023-03-21T10:18:25;13.00;99.90
24614;DHT22;12760;46.296;25.290;2023-03-21T10:20:51;13.00;99.90
24614;DHT22;12760;46.296;25.290;2023-03-21T10:23:20;13.00;99.90
24614;DHT22;12760;46.296;25.290;2023-03-21T10:26:01;13.00;99.90
24614;DHT22;12760;46.296;25.290;2023-03-21T10:28:31;13.10;99.90
24614;DHT22;12760;46.296;25.290;2023-03-21T10:31:05;13.20;99.90
24614;DHT22;12760;46.296;25.290;2023-03-21T10:33:38;13.30;99.90
24614;DHT22;12760;46.296;25.290;2023-03-21T10:36:10;13.30;99.90
24614;DHT22;12760;46.296;25.290;2023-03-21T10:38:45;13.30;99.90
24614;DHT22;12760;46.296;25.290;2023-03-21T10:41:12;13.30;99.90
24614;DHT22;12760;46.296;25.290;2023-03-21T10:43:39;13.30;99.90
24614;DHT22;12760;46.296;25.290;2023-03-21T10:46:25;13.30;99.90
24614;DHT22;12760;46.296;25.290;2023-03-21T10:48:52;13.20;99.90
24614;DHT22;12760;46.296;25.290;2023-03-21T10:51:21;13.10;99.90
24614;DHT22;12760;46.296;25.290;2023-03-21T10:53:54;13.20;99.90
24614;DHT22;12760;46.296;25.290;2023-03-21T10:56:28;13.20;99.90
24614;DHT22;12760;46.296;25.290;2023-03-21T10:58:59;13.20;99.90
24614;DHT22;12760;46.296;25.290;2023-03-21T11:01:29;13.20;99.90
24614;DHT22;12760;46.296;25.290;2023-03-21T11:03:59;13.30;99.90
24614;DHT22;12760;46.296;25.290;2023-03-21T11:06:28;13.30;99.90
24614;DHT22;12760;46.296;25.290;2023-03-21T11:09:04;13.40;99.90
24614;DHT22;12760;46.296;25.290;2023-03-21T11:11:39;13.30;99.90
24614;DHT22;12760;46.296;25.290;2023-03-21T11:14:07;13.30;99.90
24614;DHT22;12760;46.296;25.290;2023-03-21T11:16:42;13.30;99.90
24614;DHT22;12760;46.296;25.290;2023-03-21T11:19:17;13.30;99.90
24614;DHT22;12760;46.296;25.290;2023-03-21T11:21:43;13.20;99.90
24614;DHT22;12760;46.296;25.290;2023-03-21T11:24:15;13.20;99.90
24614;DHT22;12760;46.296;25.290;2023-03-21T11:26:44;13.30;99.90
24614;DHT22;12760;46.296;25.290;2023-03-21T11:32:25;13.30;99.90
24614;DHT22;12760;46.296;25.290;2023-03-21T11:37:41;13.20;99.90
24614;DHT22;12760;46.296;25.290;2023-03-21T11:40:30;13.20;99.90
24614;DHT22;12760;46.296;25.290;2023-03-21T11:43:24;13.20;99.90
24614;DHT22;12760;46.296;25.290;2023-03-21T11:46:04;13.20;99.90
24614;DHT22;12760;46.296;25.290;2023-03-21T11:48:38;13.20;99.90
24614;DHT22;12760;46.296;25.290;2023-03-21T11:56:44;13.20;99.90
24614;DHT22;12760;46.296;25.290;2023-03-21T12:13:12;13.10;99.90
24614;DHT22;12760;46.296;25.290;2023-03-21T12:21:24;13.20;99.90
24614;DHT22;12760;46.296;25.290;2023-03-21T12:24:16;13.20;99.90
24614;DHT22;12760;46.296;25.290;2023-03-21T12:26:51;13.00;99.90
24614;DHT22;12760;46.296;25.290;2023-03-21T12:29:45;12.90;99.90
24614;DHT22;12760;46.296;25.290;2023-03-21T12:32:19;13.00;99.90
24614;DHT22;12760;46.296;25.290;2023-03-21T12:37:36;13.30;99.90
24614;DHT22;12760;46.296;25.290;2023-03-21T12:42:53;13.20;99.90
24614;DHT22;12760;46.296;25.290;2023-03-21T12:45:26;13.40;99.90
24614;DHT22;12760;46.296;25.290;2023-03-21T12:50:44;13.50;99.90
24614;DHT22;12760;46.296;25.290;2023-03-21T12:56:33;13.50;99.90
24614;DHT22;12760;46.296;25.290;2023-03-21T13:02:30;13.40;99.90
24614;DHT22;12760;46.296;25.290;2023-03-21T13:05:19;13.40;99.90
24614;DHT22;12760;46.296;25.290;2023-03-21T13:07:50;13.50;99.90
24614;DHT22;12760;46.296;25.290;2023-03-21T13:10:20;13.60;99.90
24614;DHT22;12760;46.296;25.290;2023-03-21T13:18:28;13.80;99.90
24614;DHT22;12760;46.296;25.290;2023-03-21T13:21:49;13.80;99.90
24614;DHT22;12760;46.296;25.290;2023-03-21T13:26:42;13.90;99.90
24614;DHT22;12760;46.296;25.290;2023-03-21T13:29:31;13.90;99.90
24614;DHT22;12760;46.296;25.290;2023-03-21T13:34:57;13.80;99.90
24614;DHT22;12760;46.296;25.290;2023-03-21T13:37:25;13.70;99.90
24614;DHT22;12760;46.296;25.290;2023-03-21T13:40:05;13.60;99.90
24614;DHT22;12760;46.296;25.290;2023-03-21T13:42:42;13.70;99.90
24614;DHT22;12760;46.296;25.290;2023-03-21T13:45:10;13.80;99.90
24614;DHT22;12760;46.296;25.290;2023-03-21T13:47:40;13.90;99.90
24614;DHT22;12760;46.296;25.290;2023-03-21T13:50:26;13.80;99.90
24614;DHT22;12760;46.296;25.290;2023-03-21T13:55:42;14.00;99.90
24614;DHT22;12760;46.296;25.290;2023-03-21T13:58:38;14.00;99.90
24614;DHT22;12760;46.296;25.290;2023-03-21T14:03:41;14.10;99.90
24614;DHT22;12760;46.296;25.290;2023-03-21T14:06:08;14.10;99.90
24614;DHT22;12760;46.296;25.290;2023-03-21T14:08:35;14.20;99.90
24614;DHT22;12760;46.296;25.290;2023-03-21T14:11:05;14.20;99.90
24614;DHT22;12760;46.296;25.290;2023-03-21T14:13:31;14.20;99.90
24614;DHT22;12760;46.296;25.290;2023-03-21T14:16:18;14.20;99.90
24614;DHT22;12760;46.296;25.290;2023-03-21T14:18:54;14.30;99.90
24614;DHT22;12760;46.296;25.290;2023-03-21T14:21:32;14.30;99.90
24614;DHT22;12760;46.296;25.290;2023-03-21T14:24:12;14.30;99.90
24614;DHT22;12760;46.296;25.290;2023-03-21T14:26:44;14.30;99.90
24614;DHT22;12760;46.296;25.290;2023-03-21T14:29:19;14.20;99.90
24614;DHT22;12760;46.296;25.290;2023-03-21T14:31:46;14.30;99.90
24614;DHT22;12760;46.296;25.290;2023-03-21T14:34:14;14.40;99.90
24614;DHT22;12760;46.296;25.290;2023-03-21T14:36:41;14.40;99.90
24614;DHT22;12760;46.296;25.290;2023-03-21T14:39:20;14.40;99.90
24614;DHT22;12760;46.296;25.290;2023-03-21T14:41:52;14.40;99.90
24614;DHT22;12760;46.296;25.290;2023-03-21T14:44:22;14.40;99.90
24614;DHT22;12760;46.296;25.290;2023-03-21T14:49:27;14.40;99.90
24614;DHT22;12760;46.296;25.290;2023-03-21T14:52:05;14.40;99.90
24614;DHT22;12760;46.296;25.290;2023-03-21T14:54:34;14.30;99.90
24614;DHT22;12760;46.296;25.290;2023-03-21T14:57:07;14.30;99.90
24614;DHT22;12760;46.296;25.290;2023-03-21T14:59:36;14.30;99.90
24614;DHT22;12760;46.296;25.290;2023-03-21T15:02:38;14.20;99.90
24614;DHT22;12760;46.296;25.290;2023-03-21T15:05:24;14.20;99.90
24614;DHT22;12760;46.296;25.290;2023-03-21T15:07:56;14.20;99.90
24614;DHT22;12760;46.296;25.290;2023-03-21T15:10:24;14.10;99.90
24614;DHT22;12760;46.296;25.290;2023-03-21T15:12:56;14.10;99.90
24614;DHT22;12760;46.296;25.290;2023-03-21T15:15:24;14.10;99.90
24614;DHT22;12760;46.296;25.290;2023-03-21T15:17:51;14.10;99.90
24614;DHT22;12760;46.296;25.290;2023-03-21T15:20:23;14.10;99.90
24614;DHT22;12760;46.296;25.290;2023-03-21T15:22:54;14.00;99.90
24614;DHT22;12760;46.296;25.290;2023-03-21T15:25:26;14.10;99.90
24614;DHT22;12760;46.296;25.290;2023-03-21T15:27:53;14.00;99.90
24614;DHT22;12760;46.296;25.290;2023-03-21T15:30:26;14.00;99.90
24614;DHT22;12760;46.296;25.290;2023-03-21T15:32:56;13.90;99.90
24614;DHT22;12760;46.296;25.290;2023-03-21T15:35:32;13.80;99.90
24614;DHT22;12760;46.296;25.290;2023-03-21T15:37:59;13.80;99.90
24614;DHT22;12760;46.296;25.290;2023-03-21T15:40:30;13.70;99.90
24614;DHT22;12760;46.296;25.290;2023-03-21T15:43:17;13.70;99.90
24614;DHT22;12760;46.296;25.290;2023-03-21T15:45:51;13.70;99.90
24614;DHT22;12760;46.296;25.290;2023-03-21T15:48:32;13.70;99.90
24614;DHT22;12760;46.296;25.290;2023-03-21T15:51:04;13.70;99.90
24614;DHT22;12760;46.296;25.290;2023-03-21T15:53:35;13.60;99.90
24614;DHT22;12760;46.296;25.290;2023-03-21T15:56:04;13.50;99.90
24614;DHT22;12760;46.296;25.290;2023-03-21T15:58:41;13.40;99.90
24614;DHT22;12760;46.296;25.290;2023-03-21T16:01:21;13.40;99.90
24614;DHT22;12760;46.296;25.290;2023-03-21T16:03:54;13.40;99.90
24614;DHT22;12760;46.296;25.290;2023-03-21T16:06:22;13.50;99.90
24614;DHT22;12760;46.296;25.290;2023-03-21T16:08:52;13.50;99.90
24614;DHT22;12760;46.296;25.290;2023-03-21T16:11:25;13.50;99.90
24614;DHT22;12760;46.296;25.290;2023-03-21T16:13:54;13.50;99.90
24614;DHT22;12760;46.296;25.290;2023-03-21T16:16:24;13.50;99.90
24614;DHT22;12760;46.296;25.290;2023-03-21T16:18:51;13.50;99.90
24614;DHT22;12760;46.296;25.290;2023-03-21T16:21:20;13.40;99.90
24614;DHT22;12760;46.296;25.290;2023-03-21T16:23:46;13.40;99.90
24614;DHT22;12760;46.296;25.290;2023-03-21T16:26:17;13.30;99.90
24614;DHT22;12760;46.296;25.290;2023-03-21T16:28:45;13.30;99.90
24614;DHT22;12760;46.296;25.290;2023-03-21T16:31:17;13.20;99.90
24614;DHT22;12760;46.296;25.290;2023-03-21T16:33:43;13.00;99.90
24614;DHT22;12760;46.296;25.290;2023-03-21T16:36:15;13.00;99.90
24614;DHT22;12760;46.296;25.290;2023-03-21T16:38:47;13.00;99.90
24614;DHT22;12760;46.296;25.290;2023-03-21T16:41:14;12.90;99.90
24614;DHT22;12760;46.296;25.290;2023-03-21T16:43:41;12.90;99.90
24614;DHT22;12760;46.296;25.290;2023-03-21T16:46:13;12.70;99.90
24614;DHT22;12760;46.296;25.290;2023-03-21T16:48:40;12.70;99.90
24614;DHT22;12760;46.296;25.290;2023-03-21T16:51:10;12.60;99.90
24614;DHT22;12760;46.296;25.290;2023-03-21T16:53:36;12.60;99.90
24614;DHT22;12760;46.296;25.290;2023-03-21T16:56:02;12.60;99.90
24614;DHT22;12760;46.296;25.290;2023-03-21T16:58:29;12.60;99.90
24614;DHT22;12760;46.296;25.290;2023-03-21T17:00:55;12.60;99.90
24614;DHT22;12760;46.296;25.290;2023-03-21T17:03:21;12.50;99.90
24614;DHT22;12760;46.296;25.290;2023-03-21T17:05:47;12.50;99.90
24614;DHT22;12760;46.296;25.290;2023-03-21T17:08:15;12.40;99.90
24614;DHT22;12760;46.296;25.290;2023-03-21T17:10:41;12.20;99.90
24614;DHT22;12760;46.296;25.290;2023-03-21T17:13:06;12.00;99.90
24614;DHT22;12760;46.296;25.290;2023-03-21T17:15:32;12.00;99.90
24614;DHT22;12760;46.296;25.290;2023-03-21T17:17:58;12.00;99.90
24614;DHT22;12760;46.296;25.290;2023-03-21T17:20:28;12.00;99.90
24614;DHT22;12760;46.296;25.290;2023-03-21T17:22:55;11.90;99.90
24614;DHT22;12760;46.296;25.290;2023-03-21T17:25:21;11.80;99.90
24614;DHT22;12760;46.296;25.290;2023-03-21T17:27:48;11.60;99.90